createdAt,value
2018-07-10T00:02:49.018Z,21.80
2018-07-10T00:06:31.894Z,21.70
2018-07-10T00:11:21.125Z,21.70
2018-07-10T00:13:51.246Z,21.60
2018-07-10T00:16:21.336Z,21.70
2018-07-10T00:18:51.067Z,21.60
2018-07-10T00:21:20.986Z,21.60
2018-07-10T00:23:51.264Z,21.70
2018-07-10T00:26:21.023Z,21.60
2018-07-10T00:28:51.005Z,21.70
2018-07-10T00:31:20.854Z,21.70
2018-07-10T00:33:50.657Z,21.70
2018-07-10T00:36:20.508Z,21.70
2018-07-10T00:38:58.923Z,21.70
2018-07-10T00:41:31.849Z,21.70
2018-07-10T00:44:02.339Z,21.70
2018-07-10T00:46:32.926Z,21.70
2018-07-10T00:49:02.776Z,21.60
2018-07-10T00:51:33.079Z,21.60
2018-07-10T00:54:02.940Z,21.60
2018-07-10T00:56:32.797Z,21.60
2018-07-10T00:59:05.445Z,21.60
2018-07-10T01:01:35.992Z,21.50
2018-07-10T01:04:05.806Z,21.50
2018-07-10T01:06:35.732Z,21.50
2018-07-10T01:09:06.060Z,21.40
2018-07-10T01:11:35.925Z,21.40
2018-07-10T01:14:05.787Z,21.50
2018-07-10T01:16:36.710Z,21.40
2018-07-10T01:19:07.355Z,21.50
2018-07-10T01:21:37.182Z,21.50
2018-07-10T01:24:07.067Z,21.50
2018-07-10T01:26:39.047Z,21.50
2018-07-10T01:29:19.869Z,21.50
2018-07-10T01:31:50.603Z,21.50
2018-07-10T01:34:20.352Z,21.50
2018-07-10T01:36:50.271Z,21.50
2018-07-10T01:39:20.185Z,21.40
2018-07-10T01:41:50.106Z,21.40
2018-07-10T01:44:20.131Z,21.40
2018-07-10T01:46:49.926Z,21.40
2018-07-10T01:49:19.792Z,21.40
2018-07-10T01:51:49.666Z,21.40
2018-07-10T01:54:21.355Z,21.40
2018-07-10T01:56:55.153Z,21.40
2018-07-10T01:59:27.484Z,21.30
2018-07-10T02:01:57.498Z,21.30
2018-07-10T02:04:27.539Z,21.30
2018-07-10T02:06:57.538Z,21.30
2018-07-10T02:09:27.371Z,21.30
2018-07-10T02:11:57.273Z,21.30
2018-07-10T02:14:27.190Z,21.30
2018-07-10T02:16:57.147Z,21.30
2018-07-10T02:19:27.047Z,21.20
2018-07-10T02:21:57.030Z,21.20
2018-07-10T02:24:27.455Z,21.20
2018-07-10T02:26:57.401Z,21.20
2018-07-10T02:29:27.287Z,21.20
2018-07-10T02:31:57.194Z,21.20
2018-07-10T02:34:27.114Z,21.10
2018-07-10T02:36:57.018Z,21.10
2018-07-10T02:39:26.933Z,21.10
2018-07-10T02:41:56.909Z,21.10
2018-07-10T02:44:26.877Z,21.10
2018-07-10T02:46:56.894Z,21.10
2018-07-10T02:49:26.823Z,21.10
2018-07-10T02:52:04.710Z,21.00
2018-07-10T02:54:39.743Z,21.00
2018-07-10T02:57:10.293Z,21.00
2018-07-10T02:59:41.288Z,20.90
2018-07-10T03:02:21.416Z,20.90
2018-07-10T03:04:55.967Z,20.90
2018-07-10T03:07:26.708Z,20.90
2018-07-10T03:09:57.372Z,20.80
2018-07-10T03:12:28.987Z,20.80
2018-07-10T03:15:02.064Z,20.80
2018-07-10T03:17:32.302Z,20.70
2018-07-10T03:20:02.406Z,20.70
2018-07-10T03:22:32.321Z,20.70
2018-07-10T03:25:02.187Z,20.70
2018-07-10T03:27:32.308Z,20.70
2018-07-10T03:30:02.897Z,20.70
2018-07-10T03:32:33.178Z,20.70
2018-07-10T03:35:03.067Z,20.70
2018-07-10T03:37:33.030Z,20.60
2018-07-10T03:40:02.878Z,20.60
2018-07-10T03:42:32.956Z,20.50
2018-07-10T03:45:02.807Z,20.50
2018-07-10T03:47:32.732Z,20.50
2018-07-10T03:50:02.641Z,20.50
2018-07-10T03:52:34.846Z,20.40
2018-07-10T03:55:13.504Z,20.40
2018-07-10T03:57:43.437Z,20.30
2018-07-10T04:00:14.865Z,20.30
2018-07-10T04:02:52.500Z,20.30
2018-07-10T04:05:23.512Z,20.20
2018-07-10T04:07:55.916Z,20.20
2018-07-10T04:10:31.190Z,20.20
2018-07-10T04:13:20.588Z,20.20
2018-07-10T04:15:54.121Z,20.20
2018-07-10T04:18:26.865Z,20.10
2018-07-10T04:21:12.484Z,20.10
2018-07-10T04:23:43.217Z,20.20
2018-07-10T04:26:18.849Z,20.20
2018-07-10T04:28:51.162Z,20.30
2018-07-10T04:32:28.072Z,20.30
2018-07-10T04:34:58.016Z,20.30
2018-07-10T04:37:28.663Z,20.30
2018-07-10T04:39:59.086Z,20.30
2018-07-10T04:42:32.073Z,20.30
2018-07-10T04:45:11.626Z,20.30
2018-07-10T04:47:48.157Z,20.30
2018-07-10T04:50:33.218Z,20.30
2018-07-10T04:53:06.557Z,20.30
2018-07-10T04:55:39.992Z,20.40
2018-07-10T04:58:20.061Z,20.50
2018-07-10T05:00:57.394Z,20.60
2018-07-10T05:03:27.793Z,20.70
2018-07-10T05:06:02.928Z,20.70
2018-07-10T05:11:01.864Z,21.00
2018-07-10T05:13:31.779Z,21.00
2018-07-10T05:16:04.152Z,21.20
2018-07-10T05:18:34.904Z,21.30
2018-07-10T05:21:10.827Z,21.40
2018-07-10T05:23:40.884Z,21.50
2018-07-10T05:26:13.706Z,21.60
2018-07-10T05:28:44.207Z,21.70
2018-07-10T05:31:14.192Z,21.80
2018-07-10T05:33:47.890Z,21.90
2018-07-10T05:36:18.169Z,22.00
2018-07-10T05:38:48.017Z,22.00
2018-07-10T05:41:21.214Z,22.10
2018-07-10T05:43:53.012Z,22.10
2018-07-10T05:46:25.299Z,22.20
2018-07-10T05:48:59.306Z,22.30
2018-07-10T05:51:33.058Z,22.40
2018-07-10T05:54:06.446Z,22.40
2018-07-10T05:56:36.652Z,22.40
2018-07-10T05:59:07.522Z,22.40
2018-07-10T06:01:38.683Z,22.40
2018-07-10T06:04:09.568Z,22.40
2018-07-10T06:06:39.474Z,22.40
2018-07-10T06:09:09.330Z,22.50
2018-07-10T06:11:47.508Z,22.50
2018-07-10T06:14:17.405Z,22.60
2018-07-10T06:16:47.347Z,22.60
2018-07-10T06:19:17.582Z,22.60
2018-07-10T06:21:48.508Z,22.70
2018-07-10T06:24:24.332Z,22.80
2018-07-10T06:27:02.590Z,22.90
2018-07-10T06:30:07.568Z,23.00
2018-07-10T06:32:54.945Z,23.20
2018-07-10T06:35:32.340Z,23.30
2018-07-10T06:38:02.441Z,23.40
2018-07-10T06:40:32.484Z,23.50
2018-07-10T06:43:25.023Z,23.70
2018-07-10T06:45:55.054Z,23.90
2018-07-10T06:48:24.937Z,24.00
2018-07-10T06:53:25.851Z,24.40
2018-07-10T06:55:58.144Z,25.10
2018-07-10T06:58:32.599Z,27.00
2018-07-10T07:01:02.416Z,29.10
2018-07-10T07:03:32.583Z,31.00
2018-07-10T07:06:02.653Z,32.20
2018-07-10T07:08:32.665Z,33.40
2018-07-10T07:11:02.446Z,34.60
2018-07-10T07:16:57.223Z,35.10
2018-07-10T07:19:26.905Z,36.00
2018-07-10T07:21:56.803Z,36.70
2018-07-10T07:24:26.672Z,37.00
2018-07-10T07:26:56.424Z,37.50
2018-07-10T07:29:26.201Z,37.70
2018-07-10T07:31:55.964Z,37.60
2018-07-10T07:34:25.922Z,38.00
2018-07-10T07:36:55.834Z,38.50
2018-07-10T07:41:54.909Z,39.30
2018-07-10T07:44:24.993Z,38.40
2018-07-10T07:46:54.825Z,37.60
2018-07-10T07:49:24.653Z,36.50
2018-07-10T07:51:54.610Z,35.60
2018-07-10T07:54:24.582Z,35.10
2018-07-10T07:56:54.445Z,35.40
2018-07-10T07:59:24.174Z,36.00
2018-07-10T08:04:23.159Z,36.20
2018-07-10T08:06:52.929Z,35.50
2018-07-10T08:09:23.028Z,34.70
2018-07-10T08:11:52.933Z,34.00
2018-07-10T08:14:22.817Z,33.10
2018-07-10T08:16:52.687Z,32.90
2018-07-10T08:19:22.649Z,32.80
2018-07-10T08:21:52.619Z,32.70
2018-07-10T08:24:23.992Z,32.50
2018-07-10T08:26:57.400Z,32.30
2018-07-10T08:29:28.814Z,32.30
2018-07-10T08:31:58.827Z,32.50
2018-07-10T08:34:29.133Z,32.70
2018-07-10T08:36:58.985Z,32.50
2018-07-10T08:39:28.840Z,33.10
2018-07-10T08:41:58.559Z,34.00
2018-07-10T08:44:28.490Z,35.20
2018-07-10T08:46:58.507Z,36.20
2018-07-10T08:49:33.933Z,36.40
2018-07-10T08:52:03.973Z,36.10
2018-07-10T08:54:33.680Z,35.60
2018-07-10T08:57:03.836Z,35.60
2018-07-10T08:59:34.212Z,35.30
2018-07-10T09:02:05.000Z,34.90
2018-07-10T09:04:34.837Z,34.50
2018-07-10T09:07:04.583Z,34.30
2018-07-10T09:09:34.436Z,34.10
2018-07-10T09:12:04.241Z,33.80
2018-07-10T09:14:34.039Z,33.60
2018-07-10T09:17:03.864Z,33.30
2018-07-10T09:19:33.768Z,32.90
2018-07-10T09:22:09.617Z,32.40
2018-07-10T09:24:50.253Z,31.90
2018-07-10T09:27:22.075Z,31.30
2018-07-10T09:29:52.123Z,30.90
2018-07-10T09:32:27.501Z,30.70
2018-07-10T09:34:58.641Z,30.50
2018-07-10T09:37:35.820Z,30.40
2018-07-10T09:40:20.696Z,30.30
2018-07-10T09:42:57.195Z,30.20
2018-07-10T09:45:34.964Z,30.20
2018-07-10T09:48:05.764Z,30.20
2018-07-10T09:50:35.716Z,30.20
2018-07-10T09:53:05.522Z,30.40
2018-07-10T09:55:35.477Z,30.60
2018-07-10T10:00:39.826Z,32.70
2018-07-10T10:03:09.693Z,33.20
2018-07-10T10:05:43.802Z,33.70
2018-07-10T10:08:13.770Z,34.60
2018-07-10T10:10:43.645Z,34.80
2018-07-10T10:13:13.591Z,35.00
2018-07-10T10:15:43.636Z,34.70
2018-07-10T10:18:13.441Z,34.60
2018-07-10T10:20:43.355Z,34.60
2018-07-10T10:23:14.465Z,34.20
2018-07-10T10:25:48.382Z,33.60
2018-07-10T10:28:18.770Z,32.90
2018-07-10T10:30:48.556Z,32.30
2018-07-10T10:33:18.484Z,31.80
2018-07-10T10:35:48.399Z,31.40
2018-07-10T10:38:18.920Z,31.00
2018-07-10T10:40:49.968Z,30.60
2018-07-10T10:43:19.888Z,30.20
2018-07-10T10:45:49.856Z,30.10
2018-07-10T10:48:19.626Z,29.60
2018-07-10T10:50:50.796Z,29.20
2018-07-10T10:53:21.101Z,28.80
2018-07-10T10:55:51.049Z,28.60
2018-07-10T10:58:21.785Z,28.50
2018-07-10T11:03:20.908Z,28.00
2018-07-10T11:05:50.766Z,27.80
2018-07-10T11:08:22.696Z,27.60
2018-07-10T11:10:52.664Z,27.50
2018-07-10T11:13:22.861Z,27.50
2018-07-10T11:15:52.768Z,27.50
2018-07-10T11:18:36.673Z,27.50
2018-07-10T11:23:52.672Z,27.50
2018-07-10T11:26:34.986Z,27.40
2018-07-10T11:29:06.180Z,27.30
2018-07-10T11:31:36.696Z,27.20
2018-07-10T11:34:07.000Z,27.00
2018-07-10T11:36:37.133Z,26.70
2018-07-10T11:39:14.055Z,26.40
2018-07-10T11:41:53.317Z,26.00
2018-07-10T11:44:23.095Z,25.70
2018-07-10T11:46:52.964Z,25.50
2018-07-10T11:49:22.803Z,25.30
2018-07-10T11:51:52.829Z,25.20
2018-07-10T11:54:23.117Z,25.10
2018-07-10T11:56:52.886Z,25.00
2018-07-10T11:59:22.768Z,24.80
2018-07-10T12:01:52.797Z,24.70
2018-07-10T12:04:22.677Z,24.60
2018-07-10T12:06:53.825Z,24.40
2018-07-10T12:09:24.189Z,24.10
2018-07-10T12:11:54.298Z,23.80
2018-07-10T12:14:24.033Z,23.60
2018-07-10T12:16:53.953Z,23.40
2018-07-10T12:21:53.004Z,23.10
2018-07-10T12:24:22.985Z,22.90
2018-07-10T12:26:52.944Z,22.80
2018-07-10T12:29:22.988Z,22.60
2018-07-10T12:31:52.865Z,22.50
2018-07-10T12:34:22.688Z,22.50
2018-07-10T12:36:52.499Z,22.30
2018-07-10T12:39:22.437Z,22.20
2018-07-10T12:41:52.332Z,22.20
2018-07-10T12:44:22.168Z,22.10
2018-07-10T12:46:51.984Z,21.90
2018-07-10T12:49:22.050Z,21.90
2018-07-10T12:51:51.849Z,21.80
2018-07-10T12:54:21.540Z,21.80
2018-07-10T12:56:51.420Z,21.70
2018-07-10T12:59:21.176Z,21.60
2018-07-10T13:01:51.147Z,21.40
2018-07-10T13:04:21.105Z,21.40
2018-07-10T13:06:50.909Z,21.30
2018-07-10T13:09:20.838Z,21.30
2018-07-10T13:11:50.703Z,21.30
2018-07-10T13:14:20.352Z,21.30
2018-07-10T13:19:20.261Z,21.30
2018-07-10T13:21:50.158Z,21.30
2018-07-10T13:24:19.808Z,21.30
2018-07-10T13:26:49.678Z,21.30
2018-07-10T13:31:48.840Z,21.30
2018-07-10T13:36:47.700Z,21.30
2018-07-10T13:39:17.619Z,21.40
2018-07-10T13:41:47.457Z,21.40
2018-07-10T13:46:46.371Z,21.40
2018-07-10T13:49:16.344Z,21.50
2018-07-10T13:51:46.141Z,21.40
2018-07-10T13:54:16.066Z,21.30
2018-07-10T13:56:46.090Z,21.20
2018-07-10T13:59:15.895Z,21.20
2018-07-10T14:01:45.866Z,21.10
2018-07-10T14:04:15.667Z,21.10
2018-07-10T14:06:45.493Z,21.10
2018-07-10T14:09:15.281Z,21.10
2018-07-10T14:11:45.978Z,21.00
2018-07-10T14:14:16.153Z,21.00
2018-07-10T14:16:47.057Z,21.00
2018-07-10T14:19:18.888Z,20.90
2018-07-10T14:21:48.730Z,20.90
2018-07-10T14:24:19.235Z,20.80
2018-07-10T14:26:49.177Z,20.80
2018-07-10T14:29:18.729Z,20.80
2018-07-10T14:31:48.322Z,20.80
2018-07-10T14:34:17.842Z,20.80
2018-07-10T14:36:47.473Z,20.80
2018-07-10T14:39:17.709Z,20.80
2018-07-10T14:41:48.048Z,20.80
2018-07-10T14:44:17.627Z,20.80
2018-07-10T14:46:47.370Z,20.90
2018-07-10T14:49:18.453Z,20.90
2018-07-10T14:51:51.004Z,20.90
2018-07-10T14:54:21.046Z,21.00
2018-07-10T14:59:19.843Z,20.90
2018-07-10T15:01:50.096Z,20.80
2018-07-10T15:04:19.853Z,20.80
2018-07-10T15:06:49.457Z,20.80
2018-07-10T15:09:19.214Z,20.90
2018-07-10T15:11:49.677Z,20.90
2018-07-10T15:14:19.947Z,20.90
2018-07-10T15:16:56.064Z,20.90
2018-07-10T15:19:26.217Z,20.90
2018-07-10T15:21:57.335Z,20.90
2018-07-10T15:24:28.313Z,20.90
2018-07-10T15:26:59.956Z,20.90
2018-07-10T15:29:31.362Z,20.80
2018-07-10T15:32:01.720Z,20.80
2018-07-10T15:34:31.499Z,20.80
2018-07-10T15:37:02.335Z,20.80
2018-07-10T15:39:31.929Z,20.80
2018-07-10T15:42:01.909Z,20.80
2018-07-10T15:44:32.754Z,20.90
2018-07-10T15:47:04.281Z,20.80
2018-07-10T15:49:34.058Z,20.90
2018-07-10T15:52:05.393Z,20.80
2018-07-10T15:54:34.875Z,20.90
2018-07-10T15:57:05.890Z,20.90
2018-07-10T15:59:37.047Z,20.90
2018-07-10T16:02:06.580Z,20.80
2018-07-10T16:04:36.116Z,20.80
2018-07-10T16:07:05.712Z,20.80
2018-07-10T16:09:36.651Z,20.80
2018-07-10T16:12:06.948Z,20.80
2018-07-10T16:14:38.885Z,20.80
2018-07-10T16:17:38.898Z,20.80
2018-07-10T16:22:42.941Z,20.80
2018-07-10T16:25:20.674Z,20.90
2018-07-10T16:27:50.259Z,20.90
2018-07-10T16:30:24.888Z,21.00
2018-07-10T16:32:54.479Z,21.00
2018-07-10T16:35:28.485Z,21.10
2018-07-10T16:40:28.274Z,21.10
2018-07-10T16:42:58.563Z,21.10
2018-07-10T16:45:31.624Z,21.20
2018-07-10T16:50:16.270Z,21.20
2018-07-10T16:52:51.068Z,21.20
2018-07-10T16:55:20.742Z,21.20
2018-07-10T16:57:50.487Z,21.20
2018-07-10T17:00:20.526Z,21.20
2018-07-10T17:02:50.536Z,21.10
2018-07-10T17:05:20.503Z,21.00
2018-07-10T17:07:50.529Z,21.00
2018-07-10T17:10:20.786Z,21.00
2018-07-10T17:12:50.272Z,21.00
2018-07-10T17:15:19.998Z,21.00
2018-07-10T17:17:49.452Z,20.90
2018-07-10T17:20:19.358Z,20.90
2018-07-10T17:22:48.981Z,20.80
2018-07-10T17:25:19.008Z,20.80
2018-07-10T17:27:49.823Z,20.70
2018-07-10T17:30:19.689Z,20.70
2018-07-10T17:32:49.329Z,20.60
2018-07-10T17:35:18.927Z,20.60
2018-07-10T17:37:49.748Z,20.50
2018-07-10T17:47:51.132Z,20.30
2018-07-10T17:50:21.080Z,20.20
2018-07-10T17:52:50.816Z,20.20
2018-07-10T17:55:20.674Z,20.10
2018-07-10T17:58:06.776Z,20.10
2018-07-10T18:00:36.636Z,20.00
2018-07-10T18:03:06.066Z,19.90
2018-07-10T18:05:35.612Z,20.00
2018-07-10T18:08:05.184Z,19.90
2018-07-10T18:10:34.752Z,19.90
2018-07-10T18:13:04.786Z,19.90
2018-07-10T18:15:34.650Z,19.90
2018-07-10T18:18:04.463Z,19.80
2018-07-10T18:20:34.371Z,19.80
2018-07-10T18:23:04.066Z,19.70
2018-07-10T18:25:33.473Z,19.70
2018-07-10T18:28:02.954Z,19.70
2018-07-10T18:30:32.620Z,19.70
2018-07-10T18:33:02.288Z,19.70
2018-07-10T18:35:33.761Z,19.70
2018-07-10T18:38:03.790Z,19.60
2018-07-10T18:40:33.307Z,19.50
2018-07-10T18:43:02.865Z,19.50
2018-07-10T18:45:32.413Z,19.40
2018-07-10T18:48:02.045Z,19.40
2018-07-10T18:50:31.661Z,19.30
2018-07-10T18:53:02.078Z,19.30
2018-07-10T18:55:31.561Z,19.20
2018-07-10T18:58:05.269Z,19.20
2018-07-10T19:00:42.590Z,19.10
2018-07-10T19:03:13.719Z,19.10
2018-07-10T19:05:46.624Z,19.20
2018-07-10T19:08:16.475Z,19.20
2018-07-10T19:10:47.192Z,19.20
2018-07-10T19:13:18.229Z,19.10
2018-07-10T19:15:48.948Z,19.10
2018-07-10T19:18:18.853Z,19.00
2018-07-10T19:20:55.897Z,19.00
2018-07-10T19:23:46.856Z,19.00
2018-07-10T19:26:17.257Z,18.90
2018-07-10T19:28:47.769Z,18.90
2018-07-10T19:31:19.795Z,18.80
2018-07-10T19:33:53.564Z,18.80
2018-07-10T19:36:23.504Z,18.80
2018-07-10T19:38:53.402Z,18.80
2018-07-10T19:41:23.462Z,18.80
2018-07-10T19:43:53.479Z,18.80
2018-07-10T19:46:23.337Z,18.80
2018-07-10T19:48:55.431Z,18.80
2018-07-10T19:51:27.999Z,18.80
2018-07-10T19:54:00.845Z,18.80
2018-07-10T19:56:30.637Z,18.80
2018-07-10T19:59:01.221Z,18.80
2018-07-10T20:01:40.223Z,18.80
2018-07-10T20:07:16.970Z,18.70
2018-07-10T20:09:51.273Z,18.70
2018-07-10T20:12:26.567Z,18.70
2018-07-10T20:15:02.859Z,18.70
2018-07-10T20:17:36.227Z,18.60
2018-07-10T20:20:11.186Z,18.60
2018-07-10T20:22:52.494Z,18.50
2018-07-10T20:27:44.103Z,18.50
2018-07-10T20:31:22.161Z,18.60
2018-07-10T20:33:56.857Z,18.60
2018-07-10T20:36:26.676Z,18.60
2018-07-10T20:38:57.976Z,18.50
2018-07-10T20:41:32.912Z,18.40
2018-07-10T20:44:06.617Z,18.40
2018-07-10T20:46:40.957Z,18.40
2018-07-10T20:49:10.906Z,18.30
2018-07-10T20:52:18.791Z,18.30
2018-07-10T20:54:51.646Z,18.20
2018-07-10T20:58:31.180Z,18.20
2018-07-10T21:01:05.229Z,18.10
2018-07-10T21:03:56.583Z,18.20
2018-07-10T21:06:34.833Z,18.20
2018-07-10T21:09:09.000Z,18.20
2018-07-10T21:12:15.990Z,18.20
2018-07-10T21:14:51.668Z,18.20
2018-07-10T21:17:25.904Z,18.20
2018-07-10T21:20:06.640Z,18.20
2018-07-10T21:22:48.987Z,18.20
2018-07-10T21:25:35.223Z,18.20
2018-07-10T21:28:43.564Z,18.10
2018-07-10T21:31:33.693Z,18.10
2018-07-10T21:34:12.024Z,18.20
2018-07-10T21:38:55.139Z,18.10
2018-07-10T21:41:36.640Z,18.20
2018-07-10T21:46:26.256Z,18.30
2018-07-10T21:49:16.140Z,18.30
2018-07-10T21:51:49.504Z,18.30
2018-07-10T21:54:19.328Z,18.30
2018-07-10T21:56:48.886Z,18.30
2018-07-10T21:59:20.156Z,18.30
2018-07-10T22:02:04.929Z,18.20
2018-07-10T22:04:35.987Z,18.20
2018-07-10T22:07:12.181Z,18.10
2018-07-10T22:09:42.297Z,18.10
2018-07-10T22:12:17.209Z,18.10
2018-07-10T22:14:47.669Z,18.10
2018-07-10T22:17:25.296Z,18.20
2018-07-10T22:19:56.725Z,18.20
2018-07-10T22:22:32.452Z,18.20
2018-07-10T22:25:05.929Z,18.10
2018-07-10T22:27:37.932Z,18.20
2018-07-10T22:30:12.448Z,18.10
2018-07-10T22:32:47.140Z,18.10
2018-07-10T22:35:17.213Z,18.10
2018-07-10T22:37:47.742Z,18.10
2018-07-10T22:40:18.905Z,18.00
2018-07-10T22:42:48.820Z,18.10
2018-07-10T22:45:19.452Z,18.00
2018-07-10T22:47:49.387Z,18.00
2018-07-10T22:50:22.684Z,18.10
2018-07-10T22:52:54.427Z,18.10
2018-07-10T22:55:32.945Z,18.10
2018-07-10T22:58:05.436Z,18.10
2018-07-10T23:00:36.437Z,18.10
2018-07-10T23:03:17.733Z,18.10
2018-07-10T23:05:49.908Z,18.10
2018-07-10T23:08:22.099Z,18.10
2018-07-10T23:10:52.083Z,18.10
2018-07-10T23:13:22.065Z,18.10
2018-07-10T23:15:52.049Z,18.10
2018-07-10T23:18:22.123Z,18.00
2018-07-10T23:23:21.624Z,18.00
2018-07-10T23:25:51.528Z,18.00
2018-07-10T23:28:23.237Z,18.00
2018-07-10T23:30:53.264Z,18.00
2018-07-10T23:33:25.630Z,18.00
2018-07-10T23:36:02.124Z,18.00
2018-07-10T23:39:10.029Z,18.00
2018-07-10T23:41:45.267Z,17.90
2018-07-10T23:44:15.185Z,17.90
2018-07-10T23:47:05.894Z,17.90
2018-07-10T23:49:35.695Z,17.90
2018-07-10T23:52:16.179Z,17.80
2018-07-10T23:54:46.343Z,17.80
2018-07-10T23:57:16.545Z,17.80
2018-07-10T23:59:46.300Z,17.70
